createdAt,value
2018-12-05T00:02:09.522Z,99585.25
2018-12-05T00:04:41.018Z,99582.56
2018-12-05T00:07:11.934Z,99572.19
2018-12-05T00:09:45.319Z,99577.77
2018-12-05T00:12:16.656Z,99577.17
2018-12-05T00:14:50.097Z,99577.13
2018-12-05T00:17:21.766Z,99583.12
2018-12-05T00:19:54.988Z,99577.36
2018-12-05T00:22:26.453Z,99579.06
2018-12-05T00:24:59.909Z,99579.38
2018-12-05T00:27:31.230Z,99585.14
2018-12-05T00:30:02.321Z,99575.24
2018-12-05T00:32:35.648Z,99587.66
2018-12-05T00:35:08.617Z,99585.84
2018-12-05T00:37:41.667Z,99581.15
2018-12-05T00:40:13.227Z,99581.05
2018-12-05T00:42:43.781Z,99584.09
2018-12-05T00:45:15.162Z,99588.57
2018-12-05T00:47:48.500Z,99605.41
2018-12-05T00:50:22.425Z,99600.76
2018-12-05T00:52:56.080Z,99598.17
2018-12-05T00:55:26.641Z,99600.53
2018-12-05T00:57:59.781Z,99598.41
2018-12-05T01:00:31.300Z,99601.70
2018-12-05T01:03:04.646Z,99593.92
2018-12-05T01:05:38.164Z,99600.01
2018-12-05T01:08:09.653Z,99596.83
2018-12-05T01:10:42.774Z,99596.97
2018-12-05T01:13:16.686Z,99587.64
2018-12-05T01:15:48.289Z,99587.14
2018-12-05T01:18:19.310Z,99592.81
2018-12-05T01:23:53.689Z,99590.09
2018-12-05T01:26:27.433Z,99591.02
2018-12-05T01:29:00.522Z,99587.55
2018-12-05T01:31:33.601Z,99591.02
2018-12-05T01:34:05.098Z,99588.52
2018-12-05T01:36:38.153Z,99583.86
2018-12-05T01:39:09.681Z,99580.39
2018-12-05T01:41:42.869Z,99584.55
2018-12-05T01:44:16.592Z,99596.92
2018-12-05T01:46:49.775Z,99593.33
2018-12-05T01:49:21.235Z,99594.23
2018-12-05T01:51:54.458Z,99588.16
2018-12-05T01:54:25.467Z,99583.07
2018-12-05T01:56:58.974Z,99585.84
2018-12-05T01:59:32.814Z,99587.64
2018-12-05T02:02:04.213Z,99584.45
2018-12-05T02:04:39.488Z,99584.23
2018-12-05T02:07:10.310Z,99587.92
2018-12-05T02:09:43.383Z,99586.03
2018-12-05T02:12:16.740Z,99597.20
2018-12-05T02:14:52.642Z,99597.97
2018-12-05T02:17:24.071Z,99597.02
2018-12-05T02:19:54.950Z,99596.09
2018-12-05T02:22:28.530Z,99593.97
2018-12-05T02:25:01.584Z,99597.43
2018-12-05T02:27:35.265Z,99599.91
2018-12-05T02:30:06.983Z,99589.24
2018-12-05T02:32:39.855Z,99593.71
2018-12-05T02:35:11.313Z,99589.96
2018-12-05T02:37:44.742Z,99601.76
2018-12-05T02:40:18.409Z,99599.48
2018-12-05T02:42:49.600Z,99597.13
2018-12-05T02:45:23.124Z,99593.25
2018-12-05T02:47:54.244Z,99586.11
2018-12-05T02:50:27.679Z,99583.51
2018-12-05T02:52:58.940Z,99585.23
2018-12-05T02:55:32.311Z,99583.15
2018-12-05T02:58:03.672Z,99579.97
2018-12-05T03:00:37.321Z,99590.11
2018-12-05T03:03:10.861Z,99598.36
2018-12-05T03:05:42.319Z,99596.30
2018-12-05T03:08:15.615Z,99599.80
2018-12-05T03:10:49.347Z,99600.09
2018-12-05T03:13:25.208Z,99600.92
2018-12-05T03:15:56.716Z,99609.59
2018-12-05T03:18:27.524Z,99604.84
2018-12-05T03:21:01.092Z,99612.36
2018-12-05T03:23:32.237Z,99606.01
2018-12-05T03:26:05.559Z,99602.18
2018-12-05T03:28:38.610Z,99601.20
2018-12-05T03:31:09.925Z,99595.44
2018-12-05T03:33:43.446Z,99594.98
2018-12-05T03:36:14.875Z,99593.45
2018-12-05T03:38:48.184Z,99599.96
2018-12-05T03:41:21.952Z,99601.25
2018-12-05T03:43:55.729Z,99602.27
2018-12-05T03:46:28.700Z,99597.20
2018-12-05T03:49:02.654Z,99597.56
2018-12-05T03:51:34.125Z,99600.84
2018-12-05T03:54:07.297Z,99599.91
2018-12-05T03:56:39.200Z,99596.86
2018-12-05T03:59:12.186Z,99599.09
2018-12-05T04:01:43.730Z,99600.02
2018-12-05T04:04:21.112Z,99598.77
2018-12-05T04:06:52.305Z,99607.53
2018-12-05T04:09:22.957Z,99602.83
2018-12-05T04:11:56.481Z,99601.07
2018-12-05T04:14:27.942Z,99603.06
2018-12-05T04:17:01.197Z,99603.27
2018-12-05T04:19:33.555Z,99606.14
2018-12-05T04:22:07.453Z,99607.61
2018-12-05T04:24:41.495Z,99611.04
2018-12-05T04:27:12.172Z,99610.02
2018-12-05T04:29:43.102Z,99614.67
2018-12-05T04:32:16.383Z,99602.89
2018-12-05T04:34:47.981Z,99610.69
2018-12-05T04:37:21.169Z,99609.56
2018-12-05T04:39:55.021Z,99610.28
2018-12-05T04:42:28.661Z,99613.08
2018-12-05T04:44:59.871Z,99613.25
2018-12-05T04:47:32.902Z,99618.06
2018-12-05T04:50:06.015Z,99611.20
2018-12-05T04:52:39.752Z,99618.34
2018-12-05T04:55:13.428Z,99618.85
2018-12-05T04:57:44.944Z,99609.66
2018-12-05T05:00:18.169Z,99610.28
2018-12-05T05:02:51.267Z,99614.86
2018-12-05T05:05:22.609Z,99616.30
2018-12-05T05:07:58.277Z,99623.84
2018-12-05T05:10:29.774Z,99621.30
2018-12-05T05:13:02.725Z,99630.88
2018-12-05T05:15:34.352Z,99625.45
2018-12-05T05:18:05.484Z,99623.12
2018-12-05T05:20:43.120Z,99619.86
2018-12-05T05:23:16.842Z,99623.88
2018-12-05T05:25:48.247Z,99622.58
2018-12-05T05:28:21.973Z,99625.86
2018-12-05T05:30:53.541Z,99630.27
2018-12-05T05:33:26.857Z,99629.53
2018-12-05T05:35:58.227Z,99627.50
2018-12-05T05:38:31.554Z,99626.91
2018-12-05T05:41:02.766Z,99627.72
2018-12-05T05:43:33.911Z,99623.63
2018-12-05T05:46:07.033Z,99625.74
2018-12-05T05:48:38.443Z,99619.23
2018-12-05T05:51:11.813Z,99618.83
2018-12-05T05:53:43.070Z,99612.11
2018-12-05T05:56:16.202Z,99614.28
2018-12-05T05:58:47.597Z,99611.64
2018-12-05T06:01:22.868Z,99614.82
2018-12-05T06:03:56.689Z,99621.08
2018-12-05T06:06:27.374Z,99616.11
2018-12-05T06:09:00.565Z,99615.83
2018-12-05T06:11:33.657Z,99614.42
2018-12-05T06:14:05.163Z,99618.70
2018-12-05T06:16:38.665Z,99621.20
2018-12-05T06:19:11.875Z,99629.34
2018-12-05T06:21:43.385Z,99625.35
2018-12-05T06:24:16.428Z,99629.88
2018-12-05T06:26:51.309Z,99627.98
2018-12-05T06:29:22.633Z,99630.41
2018-12-05T06:31:53.772Z,99625.13
2018-12-05T06:34:24.557Z,99622.55
2018-12-05T06:36:59.337Z,99623.93
2018-12-05T06:39:32.788Z,99621.36
2018-12-05T06:42:04.246Z,99628.86
2018-12-05T06:44:37.542Z,99626.07
2018-12-05T06:47:09.130Z,99631.79
2018-12-05T06:49:44.427Z,99643.56
2018-12-05T06:52:20.162Z,99647.14
2018-12-05T06:54:54.241Z,99650.41
2018-12-05T06:57:28.142Z,99647.20
2018-12-05T06:59:59.896Z,99647.06
2018-12-05T07:02:35.010Z,99647.00
2018-12-05T07:05:07.050Z,99654.56
2018-12-05T07:07:44.505Z,99656.26
2018-12-05T07:10:19.893Z,99655.45
2018-12-05T07:13:00.243Z,99651.27
2018-12-05T07:15:33.504Z,99652.22
2018-12-05T07:18:05.313Z,99654.86
2018-12-05T07:20:38.580Z,99660.54
2018-12-05T07:23:09.957Z,99658.95
2018-12-05T07:25:43.233Z,99662.41
2018-12-05T07:28:14.817Z,99660.38
2018-12-05T07:30:48.335Z,99653.86
2018-12-05T07:33:21.912Z,99659.50
2018-12-05T07:35:59.941Z,99654.13
2018-12-05T07:38:31.275Z,99645.83
2018-12-05T07:41:05.062Z,99650.02
2018-12-05T07:43:38.842Z,99652.27
2018-12-05T07:46:10.302Z,99654.34
2018-12-05T07:48:43.559Z,99660.79
2018-12-05T07:51:16.559Z,99660.28
2018-12-05T07:53:49.333Z,99656.58
2018-12-05T07:56:22.466Z,99664.58
2018-12-05T07:58:57.769Z,99667.21
2018-12-05T08:01:31.398Z,99667.52
2018-12-05T08:04:06.175Z,99669.62
2018-12-05T08:06:37.709Z,99661.53
2018-12-05T08:09:11.347Z,99659.11
2018-12-05T08:11:45.668Z,99661.07
2018-12-05T08:14:19.910Z,99668.13
2018-12-05T08:16:51.474Z,99664.37
2018-12-05T08:19:24.820Z,99663.22
2018-12-05T08:21:58.618Z,99670.14
2018-12-05T08:24:33.056Z,99669.01
2018-12-05T08:27:06.190Z,99667.59
2018-12-05T08:29:38.020Z,99669.02
2018-12-05T08:32:08.822Z,99661.57
2018-12-05T08:34:42.123Z,99664.82
2018-12-05T08:37:15.993Z,99665.80
2018-12-05T08:39:47.697Z,99657.80
2018-12-05T08:42:20.747Z,99664.20
2018-12-05T08:44:52.423Z,99658.59
2018-12-05T08:47:33.627Z,99658.36
2018-12-05T08:50:01.215Z,99652.81
2018-12-05T08:52:38.756Z,99646.12
2018-12-05T08:55:12.576Z,99641.50
2018-12-05T08:57:46.623Z,99646.72
2018-12-05T09:00:19.825Z,99647.59
2018-12-05T09:02:51.937Z,99642.64
2018-12-05T09:05:25.495Z,99639.13
2018-12-05T09:07:57.061Z,99630.71
2018-12-05T09:10:30.036Z,99617.41
2018-12-05T09:13:01.521Z,99616.66
2018-12-05T09:15:34.733Z,99610.10
2018-12-05T09:18:06.281Z,99619.17
2018-12-05T09:20:39.731Z,99618.73
2018-12-05T09:23:11.359Z,99619.73
2018-12-05T09:25:45.356Z,99608.57
2018-12-05T09:28:17.220Z,99614.41
2018-12-05T09:30:48.682Z,99612.03
2018-12-05T09:33:19.738Z,99605.19
2018-12-05T09:35:56.888Z,99608.38
2018-12-05T09:38:31.091Z,99611.54
2018-12-05T09:41:05.039Z,99598.63
2018-12-05T09:43:38.800Z,99612.77
2018-12-05T09:46:10.514Z,99610.13
2018-12-05T09:48:42.649Z,99607.02
2018-12-05T09:51:13.898Z,99610.47
2018-12-05T09:53:49.466Z,99608.41
2018-12-05T09:56:23.177Z,99608.25
2018-12-05T09:58:59.034Z,99610.37
2018-12-05T10:01:32.986Z,99603.03
2018-12-05T10:04:04.368Z,99598.86
2018-12-05T10:06:37.764Z,99594.58
2018-12-05T10:09:09.336Z,99586.59
2018-12-05T10:11:47.018Z,99584.86
2018-12-05T10:14:22.803Z,99579.56
2018-12-05T10:16:56.533Z,99578.23
2018-12-05T10:19:28.214Z,99578.20
2018-12-05T10:22:07.824Z,99577.71
2018-12-05T10:24:39.706Z,99571.70
2018-12-05T10:27:12.939Z,99576.48
2018-12-05T10:29:45.656Z,99565.90
2018-12-05T10:32:20.705Z,99570.05
2018-12-05T10:34:54.475Z,99564.72
2018-12-05T10:37:28.451Z,99554.91
2018-12-05T10:40:02.214Z,99558.80
2018-12-05T10:42:35.970Z,99555.49
2018-12-05T10:45:09.504Z,99558.40
2018-12-05T10:47:41.361Z,99547.52
2018-12-05T10:50:15.453Z,99543.95
2018-12-05T10:52:49.355Z,99536.22
2018-12-05T10:55:23.218Z,99527.95
2018-12-05T10:57:54.819Z,99535.23
2018-12-05T11:00:37.605Z,99531.58
2018-12-05T11:03:14.731Z,99527.02
2018-12-05T11:05:53.814Z,99527.39
2018-12-05T11:08:31.105Z,99519.52
2018-12-05T11:11:16.649Z,99519.03
2018-12-05T11:13:53.769Z,99517.22
2018-12-05T11:16:34.838Z,99509.41
2018-12-05T11:19:18.673Z,99515.59
2018-12-05T11:21:56.412Z,99504.33
2018-12-05T11:24:32.905Z,99503.52
2018-12-05T11:27:06.373Z,99490.48
2018-12-05T11:29:37.740Z,99491.37
2018-12-05T11:32:11.473Z,99490.50
2018-12-05T11:34:43.264Z,99486.16
2018-12-05T11:37:16.252Z,99481.39
2018-12-05T11:39:47.882Z,99483.58
2018-12-05T11:42:21.234Z,99481.45
2018-12-05T11:44:52.585Z,99477.13
2018-12-05T11:47:28.489Z,99472.81
2018-12-05T11:50:01.749Z,99473.14
2018-12-05T11:52:33.256Z,99470.95
2018-12-05T11:55:06.163Z,99472.22
2018-12-05T11:57:37.721Z,99467.87
2018-12-05T12:00:10.917Z,99467.02
2018-12-05T12:02:44.878Z,99465.27
2018-12-05T12:05:16.594Z,99456.16
2018-12-05T12:07:48.246Z,99453.56
2018-12-05T12:10:24.627Z,99450.98
2018-12-05T12:13:05.502Z,99446.62
2018-12-05T12:15:38.645Z,99442.78
2018-12-05T12:18:10.194Z,99441.92
2018-12-05T12:20:43.563Z,99432.89
2018-12-05T12:23:15.236Z,99439.42
2018-12-05T12:25:50.349Z,99428.97
2018-12-05T12:28:21.784Z,99425.45
2018-12-05T12:30:55.156Z,99418.53
2018-12-05T12:33:28.799Z,99424.58
2018-12-05T12:36:03.487Z,99418.55
2018-12-05T12:38:40.596Z,99415.95
2018-12-05T12:41:14.359Z,99408.94
2018-12-05T12:43:45.870Z,99405.44
2018-12-05T12:46:18.939Z,99409.75
2018-12-05T12:48:50.147Z,99412.31
2018-12-05T12:51:23.781Z,99398.45
2018-12-05T12:53:57.364Z,99395.36
2018-12-05T12:56:34.570Z,99394.05
2018-12-05T12:59:06.223Z,99391.36
2018-12-05T13:01:39.453Z,99388.31
2018-12-05T13:04:13.179Z,99382.75
2018-12-05T13:06:46.893Z,99389.70
2018-12-05T13:09:18.585Z,99377.02
2018-12-05T13:11:51.749Z,99377.36
2018-12-05T13:14:25.504Z,99367.75
2018-12-05T13:17:01.316Z,99372.02
2018-12-05T13:19:35.907Z,99372.36
2018-12-05T13:22:09.848Z,99369.63
2018-12-05T13:24:41.152Z,99368.61
2018-12-05T13:27:14.560Z,99377.25
2018-12-05T13:29:45.879Z,99366.72
2018-12-05T13:32:16.570Z,99359.25
2018-12-05T13:34:49.839Z,99366.62
2018-12-05T13:37:21.543Z,99360.94
2018-12-05T13:39:57.457Z,99362.48
2018-12-05T13:42:30.580Z,99361.95
2018-12-05T13:45:03.007Z,99350.19
2018-12-05T13:47:34.812Z,99353.64
2018-12-05T13:50:06.756Z,99356.67
2018-12-05T13:52:37.721Z,99353.95
2018-12-05T13:55:11.325Z,99347.02
2018-12-05T13:57:45.115Z,99344.31
2018-12-05T14:00:16.668Z,99340.38
2018-12-05T14:02:53.866Z,99339.41
2018-12-05T14:05:29.375Z,99336.72
2018-12-05T14:08:03.344Z,99340.20
2018-12-05T14:10:36.637Z,99346.67
2018-12-05T14:13:11.424Z,99342.67
2018-12-05T14:15:45.237Z,99345.64
2018-12-05T14:18:19.367Z,99346.87
2018-12-05T14:20:54.914Z,99347.58
2018-12-05T14:23:28.230Z,99350.91
2018-12-05T14:26:01.836Z,99345.56
2018-12-05T14:28:33.149Z,99338.97
2018-12-05T14:31:13.226Z,99343.58
2018-12-05T14:33:46.471Z,99337.80
2018-12-05T14:36:20.005Z,99333.83
2018-12-05T14:38:51.546Z,99331.55
2018-12-05T14:41:23.383Z,99335.81
2018-12-05T14:43:56.844Z,99327.05
2018-12-05T14:46:30.005Z,99326.92
2018-12-05T14:49:04.230Z,99318.70
2018-12-05T14:51:38.646Z,99316.98
2018-12-05T14:54:12.359Z,99310.77
2018-12-05T14:56:45.906Z,99312.36
2018-12-05T14:59:20.628Z,99311.12
2018-12-05T15:01:52.231Z,99320.16
2018-12-05T15:04:26.979Z,99313.29
2018-12-05T15:07:02.410Z,99309.72
2018-12-05T15:09:36.621Z,99303.07
2018-12-05T15:12:10.174Z,99300.47
2018-12-05T15:14:41.706Z,99300.41
2018-12-05T15:17:17.034Z,99299.98
2018-12-05T15:19:50.568Z,99292.95
2018-12-05T15:22:25.018Z,99298.95
2018-12-05T15:24:59.772Z,99298.00
2018-12-05T15:27:38.279Z,99297.47
2018-12-05T15:30:09.976Z,99293.09
2018-12-05T15:32:43.111Z,99296.96
2018-12-05T15:35:17.908Z,99296.80
2018-12-05T15:37:50.667Z,99287.62
2018-12-05T15:40:24.499Z,99288.27
2018-12-05T15:42:56.894Z,99280.00
2018-12-05T15:45:30.193Z,99277.02
2018-12-05T15:48:01.914Z,99261.82
2018-12-05T15:50:35.054Z,99261.77
2018-12-05T15:53:09.237Z,99254.09
2018-12-05T15:55:40.870Z,99258.78
2018-12-05T15:58:14.181Z,99251.33
2018-12-05T16:00:48.114Z,99243.80
2018-12-05T16:03:22.580Z,99242.08
2018-12-05T16:05:54.660Z,99237.78
2018-12-05T16:08:26.100Z,99243.08
2018-12-05T16:10:59.401Z,99228.43
2018-12-05T16:13:31.090Z,99224.94
2018-12-05T16:16:04.249Z,99223.22
2018-12-05T16:18:38.093Z,99217.22
2018-12-05T16:21:13.845Z,99212.09
2018-12-05T16:23:49.784Z,99202.61
2018-12-05T16:26:21.240Z,99187.97
2018-12-05T16:28:54.477Z,99193.69
2018-12-05T16:31:25.698Z,99198.84
2018-12-05T16:33:59.212Z,99193.97
2018-12-05T16:36:30.520Z,99197.39
2018-12-05T16:39:01.663Z,99188.38
2018-12-05T16:41:41.165Z,99181.97
2018-12-05T16:44:14.642Z,99177.14
2018-12-05T16:46:49.667Z,99175.50
2018-12-05T16:49:21.284Z,99163.55
2018-12-05T16:51:54.735Z,99162.25
2018-12-05T16:54:26.981Z,99167.94
2018-12-05T16:57:00.010Z,99161.92
2018-12-05T16:59:33.463Z,99161.95
2018-12-05T17:02:04.888Z,99156.66
2018-12-05T17:04:38.942Z,99153.50
2018-12-05T17:07:12.720Z,99148.30
2018-12-05T17:09:44.324Z,99139.51
2018-12-05T17:12:17.499Z,99134.77
2018-12-05T17:14:49.035Z,99135.33
2018-12-05T17:17:20.290Z,99142.83
2018-12-05T17:19:53.348Z,99128.62
2018-12-05T17:22:24.748Z,99123.91
2018-12-05T17:24:57.889Z,99111.06
2018-12-05T17:27:31.487Z,99111.48
2018-12-05T17:30:03.389Z,99116.25
2018-12-05T17:32:36.738Z,99118.81
2018-12-05T17:35:09.844Z,99107.14
2018-12-05T17:37:43.888Z,99100.83
2018-12-05T17:40:17.343Z,99106.02
2018-12-05T17:42:52.329Z,99090.00
2018-12-05T17:45:26.807Z,99081.42
2018-12-05T17:47:58.333Z,99085.41
2018-12-05T17:50:33.593Z,99077.66
2018-12-05T17:53:05.558Z,99073.76
2018-12-05T17:55:39.700Z,99073.43
2018-12-05T17:58:11.028Z,99060.48
2018-12-05T18:00:44.434Z,99059.95
2018-12-05T18:03:15.586Z,99054.84
2018-12-05T18:05:51.114Z,99050.09
2018-12-05T18:08:24.719Z,99048.77
2018-12-05T18:10:57.964Z,99031.97
2018-12-05T18:13:32.829Z,99037.55
2018-12-05T18:21:06.957Z,99030.34
2018-12-05T18:23:37.697Z,99026.01
2018-12-05T18:26:11.382Z,99035.98
2018-12-05T18:28:42.239Z,99033.41
2018-12-05T18:31:15.660Z,99021.35
2018-12-05T18:33:46.973Z,99009.23
2018-12-05T18:36:18.812Z,99012.70
2018-12-05T18:38:50.036Z,99014.45
2018-12-05T18:41:23.517Z,99006.23
2018-12-05T18:43:59.629Z,99001.45
2018-12-05T18:46:30.752Z,99004.58
2018-12-05T18:49:02.031Z,98990.26
2018-12-05T18:51:35.940Z,98985.44
2018-12-05T18:54:10.248Z,98987.66
2018-12-05T18:56:44.142Z,98989.40
2018-12-05T18:59:17.827Z,98988.13
2018-12-05T19:02:02.301Z,98985.09
2018-12-05T19:04:36.541Z,98969.93
2018-12-05T19:07:07.953Z,98967.77
2018-12-05T19:09:41.634Z,98978.95
2018-12-05T19:12:12.920Z,98965.52
2018-12-05T19:14:46.253Z,98965.13
2018-12-05T19:17:22.733Z,98959.89
2018-12-05T19:20:00.277Z,98959.89
2018-12-05T19:22:38.049Z,98955.61
2018-12-05T19:25:13.515Z,98956.07
2018-12-05T19:27:47.315Z,98951.31
2018-12-05T19:30:21.196Z,98935.33
2018-12-05T19:32:56.309Z,98946.61
2018-12-05T19:35:31.460Z,98938.88
2018-12-05T19:38:06.789Z,98932.83
2018-12-05T19:41:10.222Z,98936.74
2018-12-05T19:43:44.711Z,98928.08
2018-12-05T19:46:18.451Z,98913.35
2018-12-05T19:48:49.981Z,98911.67
2018-12-05T19:51:24.671Z,98912.10
2018-12-05T19:54:00.185Z,98908.21
2018-12-05T19:56:35.441Z,98899.56
2018-12-05T19:59:10.898Z,98893.06
2018-12-05T20:01:42.535Z,98877.45
2018-12-05T20:04:15.813Z,98876.58
2018-12-05T20:09:38.758Z,98862.41
2018-12-05T20:12:16.651Z,98859.39
2018-12-05T20:14:49.077Z,98863.30
2018-12-05T20:17:23.893Z,98862.42
2018-12-05T20:19:59.728Z,98855.97
2018-12-05T20:22:34.106Z,98853.80
2018-12-05T20:25:13.169Z,98852.50
2018-12-05T20:27:50.108Z,98859.88
2018-12-05T20:30:21.369Z,98850.77
2018-12-05T20:32:56.860Z,98856.84
2018-12-05T20:35:33.362Z,98855.12
2018-12-05T20:38:14.936Z,98851.64
2018-12-05T20:40:48.939Z,98855.10
2018-12-05T20:43:20.995Z,98838.20
2018-12-05T20:45:54.945Z,98856.85
2018-12-05T20:48:30.718Z,98843.41
2018-12-05T20:51:10.876Z,98849.03
2018-12-05T20:53:45.905Z,98837.34
2018-12-05T20:56:33.532Z,98835.17
2018-12-05T20:59:09.567Z,98815.22
2018-12-05T21:01:50.966Z,98816.96
2018-12-05T21:04:23.886Z,98808.29
2018-12-05T21:06:57.314Z,98797.06
2018-12-05T21:09:31.215Z,98798.36
2018-12-05T21:12:02.941Z,98784.88
2018-12-05T21:14:36.621Z,98794.47
2018-12-05T21:17:15.264Z,98790.61
2018-12-05T21:19:49.184Z,98797.12
2018-12-05T21:22:27.285Z,98782.81
2018-12-05T21:25:07.655Z,98785.84
2018-12-05T21:27:45.742Z,98773.70
2018-12-05T21:30:20.646Z,98776.73
2018-12-05T21:32:53.972Z,98766.37
2018-12-05T21:35:25.626Z,98759.86
2018-12-05T21:38:01.745Z,98755.96
2018-12-05T21:40:34.972Z,98746.86
2018-12-05T21:43:08.601Z,98750.33
2018-12-05T21:45:39.961Z,98751.23
2018-12-05T21:48:13.006Z,98757.30
2018-12-05T21:50:44.462Z,98756.05
2018-12-05T21:53:16.030Z,98767.28
2018-12-05T21:55:47.506Z,98777.27
2018-12-05T21:58:21.073Z,98782.50
2018-12-05T22:01:01.450Z,98789.88
2018-12-05T22:03:34.853Z,98783.80
2018-12-05T22:06:07.886Z,98775.96
2018-12-05T22:08:39.481Z,98772.92
2018-12-05T22:11:10.561Z,98769.45
2018-12-05T22:13:48.062Z,98770.31
2018-12-05T22:16:23.898Z,98771.15
2018-12-05T22:18:56.992Z,98765.06
2018-12-05T22:21:30.058Z,98766.81
2018-12-05T22:24:05.759Z,98769.80
2018-12-05T22:26:43.554Z,98771.06
2018-12-05T22:29:16.790Z,98767.14
2018-12-05T22:31:48.164Z,98756.31
2018-12-05T22:34:19.173Z,98748.94
2018-12-05T22:36:52.621Z,98747.63
2018-12-05T22:39:26.313Z,98744.55
2018-12-05T22:41:59.440Z,98742.82
2018-12-05T22:44:30.848Z,98742.39
2018-12-05T22:47:04.082Z,98738.01
2018-12-05T22:49:37.037Z,98739.78
2018-12-05T22:52:08.599Z,98742.78
2018-12-05T22:54:39.525Z,98736.27
2018-12-05T22:57:13.667Z,98737.58
2018-12-05T22:59:45.273Z,98746.67
2018-12-05T23:02:18.376Z,98751.83
2018-12-05T23:04:49.626Z,98745.75
2018-12-05T23:07:20.535Z,98744.02
2018-12-05T23:09:55.915Z,98748.80
2018-12-05T23:12:28.994Z,98745.33
2018-12-05T23:15:00.136Z,98741.03
2018-12-05T23:17:33.481Z,98742.77
2018-12-05T23:20:05.388Z,98738.44
2018-12-05T23:22:38.353Z,98729.81
2018-12-05T23:25:09.690Z,98725.48
2018-12-05T23:27:40.522Z,98729.81
2018-12-05T23:30:14.066Z,98732.85
2018-12-05T23:32:47.108Z,98717.68
2018-12-05T23:35:18.677Z,98717.28
2018-12-05T23:37:53.782Z,98711.69
2018-12-05T23:40:26.824Z,98706.05
2018-12-05T23:43:00.102Z,98708.22
2018-12-05T23:45:33.827Z,98699.94
2018-12-05T23:48:04.917Z,98704.23
2018-12-05T23:50:36.397Z,98702.07
2018-12-05T23:53:11.559Z,98693.40
2018-12-05T23:55:46.381Z,98694.70
2018-12-05T23:58:23.361Z,98691.23
